Weather at Çukurova International Airport (under construction)

Public forecast

Using degrees Celsius for public forecast. Weather courtesy of forecast.io.

Closest aviation weather report (METAR) to Çukurova International Airport (under construction)

Closest report is Adana Şakirpaşa Airport, 11.5 nm (21.2 km) ENE.

2024/05/29 09:50 (retrieved 11 minutes ago)

LTAF 290950Z VRB05KT 9999 SCT030 28/16 Q1010 NOSIG

Closest aviation forecast (TAF) to Çukurova International Airport (under construction)

Closest forecast is Adana Şakirpaşa Airport, 11.5 nm (21.2 km) ENE.

2024/05/29 06:00 (retrieved 4 hours ago)

TAF LTAF 290440Z 2906/3006 VRB02KT 9999 SCT030 BECMG 2910/2912 20012KT PROB30 TEMPO 2911/2914 -TSRA FEW020CB BKN025 BECMG 2916/2918 VRB02KT